Time;durP1;ratioP1;P1;durP2;ratioP2;P2;SDS_P1;SDS_P2;PMS_P1;PMS_P2;Temp;Humidity;BMP_temperature;BMP_pressure;BME280_temperature;BME280_humidity;BME280_pressure;Samples;Min_cycle;Max_cycle;Signal;HPM_P1;HPM_P2
2023/09/04 00:00:45;;;;;;;5.78;3.45;;;19.70;87.20;;;;;;5052532;28;20021;-68
2023/09/04 00:03:11;;;;;;;3.40;3.10;;;19.70;87.40;;;;;;5052237;28;20033;-68
2023/09/04 00:05:36;;;;;;;3.75;3.35;;;19.60;87.70;;;;;;5052518;28;20028;-68
2023/09/04 00:08:03;;;;;;;5.05;3.38;;;19.60;88.00;;;;;;5052336;28;20028;-68
2023/09/04 00:10:28;;;;;;;4.25;3.53;;;19.60;88.60;;;;;;5052121;28;20021;-69
2023/09/04 00:12:54;;;;;;;4.50;3.47;;;19.50;88.40;;;;;;5052263;28;20051;-69
2023/09/04 00:15:20;;;;;;;6.85;3.53;;;19.50;88.30;;;;;;5052562;28;20031;-67
2023/09/04 00:17:49;;;;;;;4.55;3.47;;;19.50;88.90;;;;;;5052834;28;20100;-68
2023/09/04 00:20:15;;;;;;;4.60;3.55;;;19.50;88.80;;;;;;5052245;28;20017;-68
2023/09/04 00:22:41;;;;;;;3.92;3.35;;;19.40;89.10;;;;;;5052175;28;20086;-68
2023/09/04 00:25:07;;;;;;;6.22;3.80;;;19.50;89.10;;;;;;5051819;28;20037;-68
2023/09/04 00:27:32;;;;;;;4.80;3.13;;;19.50;89.10;;;;;;5052782;28;20036;-69
2023/09/04 00:29:58;;;;;;;4.43;3.70;;;19.50;88.90;;;;;;5051811;28;20025;-68
2023/09/04 00:32:24;;;;;;;4.03;3.20;;;19.40;89.40;;;;;;5047690;28;20044;-68
2023/09/04 00:34:49;;;;;;;4.38;3.60;;;19.40;89.50;;;;;;5052791;28;20381;-68
2023/09/04 00:37:15;;;;;;;6.78;3.40;;;19.40;89.80;;;;;;5047370;28;20033;-68
2023/09/04 00:39:41;;;;;;;5.97;3.50;;;19.40;89.90;;;;;;5052652;28;20029;-68
2023/09/04 00:42:06;;;;;;;4.40;3.38;;;19.40;89.70;;;;;;5051825;28;20413;-69
2023/09/04 00:44:32;;;;;;;4.72;3.70;;;19.40;90.00;;;;;;5052267;28;20029;-68
2023/09/04 00:46:59;;;;;;;4.82;3.33;;;19.40;90.30;;;;;;5051882;28;20025;-68
2023/09/04 00:49:25;;;;;;;11.02;3.42;;;19.40;90.00;;;;;;5051945;28;20037;-68
2023/09/04 00:51:52;;;;;;;5.15;3.22;;;19.40;90.10;;;;;;5052260;28;20378;-69
2023/09/04 00:54:18;;;;;;;3.50;3.13;;;19.40;90.20;;;;;;5051788;28;20055;-68
2023/09/04 00:56:47;;;;;;;4.35;3.35;;;19.30;90.30;;;;;;5052450;28;20055;-67
2023/09/04 00:59:12;;;;;;;4.65;3.42;;;19.30;90.40;;;;;;5051745;28;20086;-69
2023/09/04 01:01:39;;;;;;;5.43;3.53;;;19.20;90.30;;;;;;5052076;28;20040;-69
2023/09/04 01:04:05;;;;;;;5.65;3.60;;;19.20;90.50;;;;;;5051669;28;20043;-69
2023/09/04 01:06:30;;;;;;;6.50;3.05;;;19.20;90.30;;;;;;5052154;28;20099;-68
2023/09/04 01:08:56;;;;;;;5.75;3.65;;;19.20;90.50;;;;;;5052183;28;20037;-70
2023/09/04 01:11:58;;;;;;;4.07;3.60;;;19.20;90.50;;;;;;5052193;28;20025;-69
2023/09/04 01:14:27;;;;;;;5.05;3.72;;;19.20;90.40;;;;;;5048663;28;20120;-68
2023/09/04 01:16:54;;;;;;;6.53;3.47;;;19.10;90.70;;;;;;5048349;28;20063;-67
2023/09/04 01:19:20;;;;;;;4.05;3.33;;;19.10;90.50;;;;;;5051666;28;20024;-67
2023/09/04 01:21:45;;;;;;;4.68;3.10;;;19.10;90.80;;;;;;5052292;28;20025;-67
2023/09/04 01:24:11;;;;;;;5.40;3.40;;;19.00;90.80;;;;;;5055222;28;20033;-68
2023/09/04 01:26:53;;;;;;;5.10;3.28;;;19.00;90.80;;;;;;5055441;28;20025;-68
2023/09/04 01:29:19;;;;;;;9.07;3.70;;;19.00;90.90;;;;;;5055165;28;20041;-67
2023/09/04 01:31:52;;;;;;;5.13;3.50;;;18.90;91.00;;;;;;5055522;28;20029;-66
2023/09/04 01:34:27;;;;;;;4.68;3.40;;;18.90;91.00;;;;;;5055031;28;20083;-67
2023/09/04 01:36:55;;;;;;;5.93;3.60;;;18.90;91.10;;;;;;5055603;28;20025;-67
2023/09/04 01:39:22;;;;;;;3.83;3.08;;;18.90;91.20;;;;;;5054879;28;20036;-67
2023/09/04 01:41:48;;;;;;;4.72;3.58;;;18.90;91.20;;;;;;5055128;28;20462;-69
2023/09/04 01:44:14;;;;;;;4.60;3.30;;;18.90;91.10;;;;;;5054906;28;20044;-69
2023/09/04 01:46:40;;;;;;;4.75;3.25;;;18.80;91.40;;;;;;5055478;28;20033;-69
2023/09/04 01:49:06;;;;;;;4.50;3.53;;;18.80;91.60;;;;;;5055169;28;20031;-69
2023/09/04 01:51:32;;;;;;;4.80;3.65;;;18.80;91.40;;;;;;5037341;28;20120;-69
2023/09/04 01:53:57;;;;;;;4.97;3.17;;;18.90;91.50;;;;;;5054996;28;20032;-68
2023/09/04 01:56:23;;;;;;;4.70;3.22;;;18.80;91.50;;;;;;5054366;28;20143;-69
2023/09/04 01:58:49;;;;;;;4.88;3.47;;;18.80;91.90;;;;;;5054891;28;20462;-69
2023/09/04 02:01:14;;;;;;;4.78;3.30;;;18.70;92.00;;;;;;5054338;28;20421;-69
2023/09/04 02:03:43;;;;;;;4.10;3.30;;;18.80;92.00;;;;;;5055020;28;20021;-69
2023/09/04 02:06:08;;;;;;;7.00;3.88;;;18.80;92.00;;;;;;5054301;28;20358;-69
2023/09/04 02:08:34;;;;;;;6.88;3.30;;;18.80;91.90;;;;;;5054883;28;20040;-69
2023/09/04 02:10:59;;;;;;;5.40;3.25;;;18.80;92.00;;;;;;5054561;28;20053;-68
2023/09/04 02:13:25;;;;;;;7.15;4.13;;;18.80;92.10;;;;;;5054479;28;20424;-69
2023/09/04 02:15:51;;;;;;;4.18;3.20;;;18.80;91.90;;;;;;5036853;28;20025;-69
2023/09/04 02:18:16;;;;;;;4.68;3.20;;;18.70;91.90;;;;;;5036413;28;20025;-69
2023/09/04 02:20:42;;;;;;;6.00;3.58;;;18.70;92.00;;;;;;5054792;28;20033;-67
2023/09/04 02:23:08;;;;;;;6.40;3.50;;;18.60;92.00;;;;;;5054047;28;20063;-68
2023/09/04 02:25:33;;;;;;;5.35;3.38;;;18.60;92.30;;;;;;5054177;28;20086;-67
2023/09/04 02:27:59;;;;;;;4.15;3.45;;;18.60;92.40;;;;;;5054135;28;20032;-67
2023/09/04 02:30:25;;;;;;;5.25;3.38;;;18.60;92.50;;;;;;5054027;28;20029;-67
2023/09/04 02:32:50;;;;;;;5.00;3.58;;;18.60;92.40;;;;;;5054324;28;20086;-68
2023/09/04 02:35:16;;;;;;;3.58;3.10;;;18.60;92.50;;;;;;5050102;28;20453;-68
2023/09/04 02:37:43;;;;;;;5.55;3.92;;;18.60;92.30;;;;;;5044555;28;20021;-69
2023/09/04 02:40:09;;;;;;;3.85;3.30;;;18.60;92.10;;;;;;5033833;28;20040;-69
2023/09/04 02:42:35;;;;;;;5.22;3.78;;;18.50;92.10;;;;;;5033774;28;20120;-69
2023/09/04 02:45:01;;;;;;;6.53;3.15;;;18.60;92.20;;;;;;5033971;28;20109;-68
2023/09/04 02:47:27;;;;;;;5.40;3.67;;;18.60;92.00;;;;;;5033516;28;20071;-68
2023/09/04 02:49:53;;;;;;;5.13;3.30;;;18.60;91.90;;;;;;5034276;28;20367;-68
2023/09/04 02:52:18;;;;;;;4.07;3.45;;;18.60;91.80;;;;;;5033616;28;20030;-69
2023/09/04 02:54:44;;;;;;;3.72;3.30;;;18.60;91.80;;;;;;5033861;28;20029;-69
2023/09/04 02:57:10;;;;;;;3.83;3.40;;;18.60;91.80;;;;;;5033533;28;20034;-69
2023/09/04 02:59:36;;;;;;;7.22;3.30;;;18.50;91.60;;;;;;5033867;28;20469;-69
2023/09/04 03:02:02;;;;;;;4.40;3.50;;;18.50;91.80;;;;;;5033865;28;20060;-68
2023/09/04 03:04:28;;;;;;;4.40;3.60;;;18.40;91.90;;;;;;5047720;28;20083;-68
2023/09/04 03:06:54;;;;;;;4.30;3.50;;;18.40;91.90;;;;;;5053793;28;20033;-68
2023/09/04 03:09:19;;;;;;;3.53;3.20;;;18.50;91.90;;;;;;5052988;28;20484;-69
2023/09/04 03:11:45;;;;;;;4.70;3.50;;;18.40;92.00;;;;;;5035836;28;20170;-68
2023/09/04 03:14:11;;;;;;;4.47;3.40;;;18.40;92.10;;;;;;5053331;28;20028;-68
2023/09/04 03:16:37;;;;;;;4.68;3.35;;;18.40;92.10;;;;;;5053378;28;20104;-68
2023/09/04 03:19:03;;;;;;;4.85;3.80;;;18.30;92.30;;;;;;5052438;28;20025;-69
2023/09/04 03:21:31;;;;;;;6.13;4.07;;;18.30;92.40;;;;;;5050729;28;20365;-68
2023/09/04 03:23:56;;;;;;;6.47;3.58;;;18.20;92.60;;;;;;5035320;28;20128;-68
2023/09/04 03:26:22;;;;;;;4.47;3.30;;;18.20;92.70;;;;;;5052808;28;20112;-68
2023/09/04 03:28:48;;;;;;;6.00;4.00;;;18.10;93.10;;;;;;5053142;28;20036;-69
2023/09/04 03:31:14;;;;;;;5.30;3.42;;;18.10;93.40;;;;;;5052973;28;20079;-69
2023/09/04 03:33:40;;;;;;;4.10;3.70;;;18.10;93.50;;;;;;5053321;28;20025;-68
2023/09/04 03:36:06;;;;;;;3.63;3.17;;;18.00;93.50;;;;;;5053311;28;20355;-69
2023/09/04 03:38:31;;;;;;;4.60;3.80;;;18.00;93.50;;;;;;5052582;28;20108;-68
2023/09/04 03:40:57;;;;;;;4.97;3.95;;;18.00;93.60;;;;;;5053191;28;20033;-68
2023/09/04 03:43:23;;;;;;;7.22;3.80;;;18.00;93.50;;;;;;5052458;28;20363;-68
2023/09/04 03:45:48;;;;;;;3.80;3.03;;;18.00;93.50;;;;;;5052112;28;20032;-68
2023/09/04 03:48:14;;;;;;;4.82;3.50;;;17.90;93.70;;;;;;5052775;28;20025;-69
2023/09/04 03:50:39;;;;;;;5.32;3.92;;;18.00;93.90;;;;;;5053692;28;20033;-67
2023/09/04 03:53:05;;;;;;;4.18;3.70;;;17.90;93.70;;;;;;5054719;28;20031;-67
2023/09/04 03:55:31;;;;;;;5.43;4.10;;;18.00;93.70;;;;;;5053871;28;20135;-67
2023/09/04 03:57:58;;;;;;;6.85;4.15;;;17.90;94.30;;;;;;5054229;28;20029;-67
2023/09/04 04:00:24;;;;;;;5.82;4.32;;;17.80;94.80;;;;;;5052701;28;20037;-68
2023/09/04 04:02:51;;;;;;;6.15;4.32;;;17.70;95.80;;;;;;5052996;28;20029;-68
2023/09/04 04:05:18;;;;;;;5.85;3.83;;;17.70;96.10;;;;;;5052468;28;20040;-69
2023/09/04 04:07:44;;;;;;;4.80;4.22;;;17.60;96.50;;;;;;5052556;28;20458;-69
2023/09/04 04:10:10;;;;;;;6.03;3.97;;;17.60;96.90;;;;;;5052791;28;20078;-68
2023/09/04 04:12:36;;;;;;;5.38;4.30;;;17.50;96.60;;;;;;5052392;28;20052;-68
2023/09/04 04:15:06;;;;;;;5.95;4.20;;;17.50;97.10;;;;;;5052754;28;20100;-68
2023/09/04 04:17:33;;;;;;;7.93;4.23;;;17.50;97.50;;;;;;5034540;28;20551;-68
2023/09/04 04:19:59;;;;;;;9.95;4.03;;;17.40;97.70;;;;;;5052706;28;20099;-68
2023/09/04 04:22:24;;;;;;;4.63;3.83;;;17.40;97.90;;;;;;5052118;28;20120;-68
2023/09/04 04:24:50;;;;;;;7.63;4.07;;;17.30;97.90;;;;;;5052278;28;20028;-68
2023/09/04 04:27:17;;;;;;;4.65;3.75;;;17.40;97.70;;;;;;5052134;28;20033;-68
2023/09/04 04:29:48;;;;;;;9.15;4.10;;;17.40;97.90;;;;;;5052512;28;20056;-67
2023/09/04 04:32:14;;;;;;;;;;;17.40;97.90;;;;;;5052988;28;20060;-68
2023/09/04 04:34:41;;;;;;;6.32;4.13;;;17.20;98.30;;;;;;5051887;28;19984;-68
2023/09/04 04:37:07;;;;;;;5.00;4.20;;;17.10;98.70;;;;;;5052260;28;20354;-68
2023/09/04 04:39:33;;;;;;;5.65;3.70;;;17.10;99.20;;;;;;5048801;28;20033;-68
2023/09/04 04:41:58;;;;;;;7.13;4.10;;;17.20;99.30;;;;;;5052043;28;20029;-68
2023/09/04 04:44:24;;;;;;;6.63;3.95;;;17.20;99.00;;;;;;5051677;28;20112;-68
2023/09/04 04:46:50;;;;;;;6.95;4.20;;;17.20;99.10;;;;;;5042549;28;20026;-68
2023/09/04 04:49:23;;;;;;;6.30;4.32;;;17.30;98.70;;;;;;5032824;28;20052;-67
2023/09/04 04:51:49;;;;;;;7.20;3.90;;;17.30;98.70;;;;;;5032552;28;20034;-67
2023/09/04 04:54:15;;;;;;;5.43;3.67;;;17.30;98.30;;;;;;5032269;28;20029;-68
2023/09/04 04:56:41;;;;;;;4.43;3.47;;;17.30;98.60;;;;;;5031792;28;20056;-69
2023/09/04 04:59:08;;;;;;;4.68;3.60;;;17.40;98.20;;;;;;5018661;28;20026;-69
2023/09/04 05:01:34;;;;;;;3.95;3.42;;;17.40;97.70;;;;;;5035823;28;20032;-69
2023/09/04 05:04:00;;;;;;;5.13;3.70;;;17.40;97.30;;;;;;5036139;28;20072;-68
2023/09/04 05:06:25;;;;;;;5.65;4.00;;;17.50;97.00;;;;;;5035436;28;20038;-69
2023/09/04 05:08:51;;;;;;;5.30;3.55;;;17.50;96.60;;;;;;5035752;28;20425;-69
2023/09/04 05:11:17;;;;;;;7.47;3.60;;;17.50;96.50;;;;;;5035908;28;20030;-69
2023/09/04 05:13:43;;;;;;;4.88;3.58;;;17.60;96.10;;;;;;5035740;28;20072;-68
2023/09/04 05:16:08;;;;;;;5.70;3.42;;;17.60;96.10;;;;;;5035919;28;20033;-69
2023/09/04 05:18:34;;;;;;;4.88;2.95;;;17.60;95.80;;;;;;5035376;28;20025;-70
2023/09/04 05:21:00;;;;;;;4.32;2.97;;;17.60;95.60;;;;;;5036019;28;20108;-68
2023/09/04 05:23:26;;;;;;;4.97;3.03;;;17.60;95.80;;;;;;5035356;28;20084;-68
2023/09/04 05:25:53;;;;;;;4.00;2.85;;;17.70;95.40;;;;;;5035799;28;20041;-68
2023/09/04 05:28:19;;;;;;;4.80;3.05;;;17.70;95.40;;;;;;5038183;28;20025;-68
2023/09/04 05:30:45;;;;;;;5.97;3.25;;;17.80;95.20;;;;;;5035551;28;20021;-66
2023/09/04 05:33:11;;;;;;;6.15;3.17;;;17.90;94.80;;;;;;5036084;28;20029;-68
2023/09/04 05:35:37;;;;;;;5.20;2.67;;;17.90;94.80;;;;;;5035127;28;20026;-68
2023/09/04 05:38:03;;;;;;;7.68;2.95;;;18.00;94.60;;;;;;5035132;28;20029;-67
2023/09/04 05:40:29;;;;;;;5.88;2.97;;;18.10;94.00;;;;;;5035323;28;20033;-68
2023/09/04 05:42:54;;;;;;;4.90;2.90;;;18.10;93.40;;;;;;5035380;28;20044;-68
2023/09/04 05:45:21;;;;;;;7.03;3.55;;;18.20;93.40;;;;;;5035216;28;20040;-68
2023/09/04 05:47:47;;;;;;;4.28;2.63;;;18.30;93.40;;;;;;5035351;28;20024;-69
2023/09/04 05:50:13;;;;;;;4.80;3.10;;;18.30;92.50;;;;;;5035087;28;20378;-69
2023/09/04 05:52:38;;;;;;;3.70;2.67;;;18.30;92.00;;;;;;5035126;28;20081;-69
2023/09/04 05:55:05;;;;;;;7.15;3.13;;;18.20;92.30;;;;;;5035225;28;20080;-68
2023/09/04 05:57:30;;;;;;;4.63;3.00;;;18.30;92.20;;;;;;5034554;28;20139;-69
2023/09/04 05:59:56;;;;;;;5.68;2.95;;;18.30;92.90;;;;;;5035206;28;20057;-68
2023/09/04 06:02:22;;;;;;;5.20;2.88;;;18.30;92.60;;;;;;5017352;28;20116;-68
2023/09/04 06:04:47;;;;;;;6.75;3.20;;;18.40;92.00;;;;;;5034799;28;20052;-67
2023/09/04 06:07:14;;;;;;;2.55;2.30;;;18.40;91.90;;;;;;5034950;28;20032;-68
2023/09/04 06:09:42;;;;;;;3.35;2.53;;;18.40;91.30;;;;;;5033569;28;20033;-68
2023/09/04 06:12:08;;;;;;;5.75;2.75;;;18.50;91.30;;;;;;5035685;28;20042;-68
2023/09/04 06:14:34;;;;;;;5.43;2.60;;;18.50;91.20;;;;;;5043741;28;20025;-68
2023/09/04 06:17:00;;;;;;;3.58;2.45;;;18.50;90.80;;;;;;5051133;28;20117;-68
2023/09/04 06:19:26;;;;;;;3.05;2.20;;;18.60;90.80;;;;;;5054256;28;20087;-68
2023/09/04 06:21:52;;;;;;;3.67;2.63;;;18.70;90.50;;;;;;5054474;28;20123;-68
2023/09/04 06:24:17;;;;;;;2.72;2.33;;;18.60;90.10;;;;;;5036699;28;20124;-67
2023/09/04 06:26:43;;;;;;;4.88;2.60;;;18.50;90.00;;;;;;5054357;28;20224;-67
2023/09/04 06:29:09;;;;;;;4.80;2.63;;;18.60;90.00;;;;;;5054332;28;20175;-69
2023/09/04 06:31:34;;;;;;;12.82;2.80;;;18.70;90.00;;;;;;5053819;28;20021;-68
2023/09/04 06:34:03;;;;;;;5.78;2.55;;;18.80;90.10;;;;;;5051169;28;20412;-68
2023/09/04 06:36:29;;;;;;;4.05;2.38;;;19.10;88.00;;;;;;5053778;28;20025;-68
2023/09/04 06:38:54;;;;;;;5.45;2.45;;;19.30;86.30;;;;;;5053904;28;20033;-68
2023/09/04 06:41:21;;;;;;;3.30;2.15;;;19.50;85.90;;;;;;5042357;28;20053;-68
2023/09/04 06:43:47;;;;;;;4.20;2.55;;;19.80;84.60;;;;;;5033509;28;20109;-68
2023/09/04 06:46:13;;;;;;;5.25;2.25;;;19.90;82.00;;;;;;5039310;28;20021;-68
2023/09/04 06:48:39;;;;;;;4.75;2.17;;;20.10;80.70;;;;;;5034932;28;20033;-68
2023/09/04 06:51:05;;;;;;;5.43;2.40;;;20.30;79.20;;;;;;5033903;28;20083;-69
2023/09/04 06:53:31;;;;;;;6.05;2.60;;;20.40;78.40;;;;;;5033410;28;20359;-69
2023/09/04 06:55:57;;;;;;;5.10;2.67;;;20.60;77.90;;;;;;5033497;28;20041;-67
2023/09/04 06:58:24;;;;;;;5.32;2.33;;;20.70;76.50;;;;;;5033715;28;20043;-67
2023/09/04 07:00:51;;;;;;;2.88;2.13;;;20.80;75.20;;;;;;5033284;28;20021;-66
2023/09/04 07:03:17;;;;;;;4.50;2.20;;;20.90;74.00;;;;;;5033542;28;20025;-66
2023/09/04 07:05:42;;;;;;;3.00;2.35;;;21.10;73.80;;;;;;5033224;28;20036;-66
2023/09/04 07:08:08;;;;;;;4.93;2.13;;;21.00;73.40;;;;;;5033611;28;20370;-66
2023/09/04 07:10:33;;;;;;;4.38;1.90;;;21.00;73.30;;;;;;5033067;28;20375;-66
2023/09/04 07:13:00;;;;;;;5.63;2.10;;;21.50;73.50;;;;;;5033440;28;20055;-66
2023/09/04 07:15:26;;;;;;;3.63;1.88;;;21.90;70.30;;;;;;5041422;28;20033;-66
2023/09/04 07:17:52;;;;;;;3.80;1.85;;;22.00;69.40;;;;;;5053057;28;20033;-65
2023/09/04 07:20:17;;;;;;;3.00;1.90;;;22.20;68.10;;;;;;5053449;28;20075;-66
2023/09/04 07:22:43;;;;;;;5.72;1.90;;;22.60;67.30;;;;;;5052784;28;20069;-66
2023/09/04 07:25:09;;;;;;;6.45;2.17;;;23.30;65.30;;;;;;5053218;28;20529;-66
2023/09/04 07:27:35;;;;;;;4.03;1.70;;;24.00;61.20;;;;;;5052927;28;20029;-67
2023/09/04 07:30:00;;;;;;;3.70;1.55;;;25.00;61.80;;;;;;5053059;28;20035;-67
2023/09/04 07:32:26;;;;;;;6.90;2.15;;;26.40;58.80;;;;;;5048581;28;20453;-67
2023/09/04 07:34:58;;;;;;;2.30;1.40;;;27.50;55.00;;;;;;5052112;28;20446;-67
2023/09/04 07:37:25;;;;;;;3.22;1.50;;;28.60;52.00;;;;;;5053053;28;20025;-66
2023/09/04 07:39:52;;;;;;;4.57;1.60;;;29.20;48.90;;;;;;5052066;28;20484;-67
2023/09/04 07:42:18;;;;;;;3.65;1.55;;;29.10;47.10;;;;;;5052399;28;20116;-67
2023/09/04 07:44:43;;;;;;;5.55;1.70;;;29.60;46.60;;;;;;5051984;28;20075;-67
2023/09/04 07:47:09;;;;;;;6.30;1.48;;;30.10;45.60;;;;;;5052108;28;20053;-68
2023/09/04 07:49:35;;;;;;;2.67;1.63;;;30.20;44.70;;;;;;5051700;28;20028;-68
2023/09/04 07:52:00;;;;;;;3.08;1.55;;;31.10;43.80;;;;;;5052711;28;20421;-68
2023/09/04 07:54:26;;;;;;;4.97;1.58;;;31.50;42.10;;;;;;5052364;28;20108;-65
2023/09/04 07:56:51;;;;;;;3.85;1.65;;;32.30;42.60;;;;;;5052338;28;20048;-65
2023/09/04 07:59:17;;;;;;;3.00;1.73;;;32.80;41.00;;;;;;5052801;28;20029;-67
2023/09/04 08:01:43;;;;;;;2.15;1.60;;;32.90;40.30;;;;;;5052393;28;20422;-67
2023/09/04 08:04:08;;;;;;;3.70;1.58;;;32.90;39.20;;;;;;5052555;28;20469;-66
2023/09/04 08:06:34;;;;;;;2.13;1.60;;;32.70;39.50;;;;;;5052392;28;20107;-68
2023/09/04 08:09:00;;;;;;;6.28;1.58;;;32.90;39.20;;;;;;5052471;28;20037;-66
2023/09/04 08:11:25;;;;;;;4.78;1.90;;;32.80;39.30;;;;;;5052344;28;20040;-67
2023/09/04 08:13:51;;;;;;;4.40;1.83;;;33.10;38.90;;;;;;5052262;28;20022;-66
2023/09/04 08:16:17;;;;;;;2.22;1.67;;;33.30;38.50;;;;;;5052839;28;20389;-67
2023/09/04 08:18:42;;;;;;;2.33;1.40;;;33.60;37.90;;;;;;5051879;28;20025;-67
2023/09/04 08:21:08;;;;;;;2.83;1.60;;;33.60;37.20;;;;;;5052547;28;20083;-67
2023/09/04 08:23:34;;;;;;;2.08;1.65;;;33.80;37.50;;;;;;5052081;28;20060;-67
2023/09/04 08:26:00;;;;;;;2.97;1.73;;;34.70;36.70;;;;;;5049423;28;20025;-66
2023/09/04 08:28:26;;;;;;;7.80;1.60;;;33.10;37.20;;;;;;5052052;28;20377;-67
2023/09/04 08:30:52;;;;;;;2.63;1.65;;;33.00;38.10;;;;;;5052055;28;20091;-67
2023/09/04 08:33:17;;;;;;;2.53;1.50;;;33.40;38.30;;;;;;5055403;28;20086;-67
2023/09/04 08:35:43;;;;;;;4.18;1.65;;;33.90;38.10;;;;;;5056057;28;20033;-67
2023/09/04 08:38:09;;;;;;;3.92;1.88;;;33.60;37.60;;;;;;5055831;28;20021;-66
2023/09/04 08:40:38;;;;;;;6.60;1.63;;;33.60;37.50;;;;;;5055341;28;20029;-67
2023/09/04 08:43:04;;;;;;;3.53;1.58;;;32.80;38.10;;;;;;5035944;28;20398;-67
2023/09/04 08:45:31;;;;;;;3.20;1.40;;;32.20;38.90;;;;;;5036283;28;20090;-66
2023/09/04 08:48:01;;;;;;;1.73;1.45;;;31.60;39.10;;;;;;5035585;28;20466;-66
2023/09/04 08:50:27;;;;;;;4.13;1.40;;;30.60;40.20;;;;;;5036499;28;20041;-66
2023/09/04 08:52:53;;;;;;;3.00;1.52;;;29.90;41.10;;;;;;5035758;28;20045;-65
2023/09/04 08:55:22;;;;;;;2.33;1.50;;;29.10;42.60;;;;;;5035864;28;20042;-66
2023/09/04 08:57:48;;;;;;;4.40;1.65;;;28.40;43.90;;;;;;5035764;28;20029;-66
2023/09/04 09:00:16;;;;;;;3.20;1.50;;;28.30;45.20;;;;;;5035965;28;20032;-67
2023/09/04 09:02:43;;;;;;;3.30;1.55;;;28.10;45.30;;;;;;5035884;28;20056;-67
2023/09/04 09:05:12;;;;;;;4.20;1.55;;;27.70;45.50;;;;;;5036289;28;20454;-65
2023/09/04 09:07:39;;;;;;;4.38;1.70;;;26.90;44.20;;;;;;5035984;28;20112;-75
2023/09/04 09:10:07;;;;;;;1.95;1.45;;;26.60;44.80;;;;;;5035853;28;20025;-66
2023/09/04 09:12:33;;;;;;;2.85;1.55;;;26.30;45.90;;;;;;5035863;28;20394;-66
2023/09/04 09:15:00;;;;;;;2.42;1.50;;;26.40;47.20;;;;;;5035420;28;20029;-65
2023/09/04 09:17:25;;;;;;;4.28;1.63;;;26.70;47.80;;;;;;5035794;28;20052;-65
2023/09/04 09:19:51;;;;;;;1.95;1.40;;;26.50;46.50;;;;;;5035414;28;20473;-66
2023/09/04 09:22:19;;;;;;;3.15;1.55;;;26.40;47.20;;;;;;5035733;28;20480;-66
2023/09/04 09:24:55;;;;;;;4.88;1.90;;;26.30;47.30;;;;;;5037182;28;20088;-66
2023/09/04 09:27:29;;;;;;;3.17;1.50;;;26.40;47.10;;;;;;5035555;28;20109;-66
2023/09/04 09:29:58;;;;;;;3.78;1.58;;;26.10;47.20;;;;;;5035613;28;20060;-65
2023/09/04 09:32:32;;;;;;;2.10;1.35;;;26.20;46.70;;;;;;5035510;28;20042;-65
2023/09/04 09:35:00;;;;;;;1.85;1.45;;;26.30;46.80;;;;;;5034960;28;20032;-66
2023/09/04 09:37:30;;;;;;;2.28;1.60;;;26.10;46.80;;;;;;5035579;28;20048;-66
2023/09/04 09:39:56;;;;;;;2.17;1.40;;;26.20;47.50;;;;;;5035193;28;20458;-66
2023/09/04 09:42:23;;;;;;;1.75;1.40;;;26.40;47.70;;;;;;5035124;28;20037;-66
2023/09/04 09:44:51;;;;;;;5.38;1.83;;;26.40;47.20;;;;;;5033733;28;20025;-67
2023/09/04 09:47:17;;;;;;;1.92;1.27;;;26.20;47.20;;;;;;5035797;28;20033;-66
2023/09/04 09:49:43;;;;;;;2.28;1.50;;;26.10;47.10;;;;;;5034840;28;20425;-66
2023/09/04 09:52:12;;;;;;;2.97;1.50;;;26.00;46.60;;;;;;5035184;28;20037;-65
2023/09/04 09:54:46;;;;;;;3.05;1.33;;;25.90;46.40;;;;;;5034961;28;20385;-67
2023/09/04 09:57:16;;;;;;;3.47;1.77;;;25.80;46.80;;;;;;5034902;28;20434;-65
2023/09/04 09:59:47;;;;;;;2.60;1.40;;;25.90;46.80;;;;;;5034746;28;20033;-69
2023/09/04 10:02:24;;;;;;;1.98;1.40;;;26.00;47.40;;;;;;5034807;28;20363;-65
2023/09/04 10:04:50;;;;;;;3.17;1.38;;;25.80;45.80;;;;;;5017518;28;20060;-66
2023/09/04 10:07:26;;;;;;;2.35;1.40;;;25.60;46.40;;;;;;5034820;28;20029;-66
2023/09/04 10:10:03;;;;;;;2.50;1.30;;;25.40;46.70;;;;;;5034464;28;20421;-67
2023/09/04 10:12:33;;;;;;;3.58;1.83;;;25.30;48.30;;;;;;5034710;28;20033;-67
2023/09/04 10:15:01;;;;;;;4.72;1.60;;;25.60;47.90;;;;;;5034665;28;20060;-67
2023/09/04 10:18:01;;;;;;;4.97;1.67;;;25.60;46.90;;;;;;5034954;28;20041;-67
2023/09/04 10:20:27;;;;;;;3.42;1.52;;;25.50;46.90;;;;;;5037208;28;20032;-68
2023/09/04 10:23:06;;;;;;;2.80;1.23;;;25.70;46.70;;;;;;5034220;28;20459;-66
2023/09/04 10:25:41;;;;;;;2.38;1.63;;;25.60;46.50;;;;;;5034661;28;20040;-66
2023/09/04 10:28:30;;;;;;;2.08;1.75;;;25.20;46.30;;;;;;5034272;28;20032;-66
2023/09/04 10:30:59;;;;;;;1.75;1.42;;;25.20;46.10;;;;;;5033890;28;20104;-67
2023/09/04 10:33:26;;;;;;;4.85;1.58;;;25.20;46.60;;;;;;5034700;28;20034;-66
2023/09/04 10:35:54;;;;;;;2.97;1.70;;;25.20;47.30;;;;;;5052671;28;20035;-65
2023/09/04 10:38:21;;;;;;;1.75;1.30;;;25.10;46.30;;;;;;5053979;28;20025;-66
2023/09/04 10:40:47;;;;;;;8.35;1.60;;;25.30;47.40;;;;;;5053796;28;20029;-66
2023/09/04 10:43:13;;;;;;;3.08;1.33;;;25.40;47.50;;;;;;5053817;28;20021;-66
2023/09/04 10:45:39;;;;;;;2.63;1.40;;;25.50;46.60;;;;;;5054081;28;20040;-66
2023/09/04 10:48:05;;;;;;;2.33;1.42;;;25.10;47.80;;;;;;5053661;28;20033;-65
2023/09/04 10:50:38;;;;;;;2.60;1.58;;;25.10;47.50;;;;;;5054002;28;20104;-65
2023/09/04 10:53:06;;;;;;;4.90;1.63;;;25.10;46.40;;;;;;5053533;28;20025;-65
2023/09/04 10:55:34;;;;;;;5.63;1.70;;;24.70;46.10;;;;;;5053188;28;20049;-65
2023/09/04 10:58:04;;;;;;;4.07;1.63;;;24.90;47.40;;;;;;5053091;28;20029;-65
2023/09/04 11:00:37;;;;;;;3.33;1.33;;;25.10;47.20;;;;;;5053732;28;20025;-65
2023/09/04 11:03:24;;;;;;;3.50;1.45;;;25.10;46.50;;;;;;5053243;28;20069;-66
2023/09/04 11:06:02;;;;;;;5.82;1.73;;;25.30;46.20;;;;;;5053214;28;20028;-66
2023/09/04 11:08:28;;;;;;;1.45;1.33;;;25.30;46.90;;;;;;5053518;28;20025;-66
2023/09/04 11:11:03;;;;;;;7.15;1.67;;;25.50;45.30;;;;;;5052914;28;20054;-66
2023/09/04 11:13:29;;;;;;;3.83;1.80;;;25.60;44.70;;;;;;5053622;28;20112;-66
2023/09/04 11:15:56;;;;;;;2.22;1.55;;;25.40;43.60;;;;;;5052787;28;20525;-66
2023/09/04 11:18:22;;;;;;;3.40;1.65;;;25.40;44.50;;;;;;5053407;28;20104;-66
2023/09/04 11:20:54;;;;;;;2.45;1.50;;;25.50;44.80;;;;;;5049722;28;20109;-74
2023/09/04 11:23:19;;;;;;;1.92;1.50;;;25.70;45.40;;;;;;5053187;28;20112;-66
2023/09/04 11:25:46;;;;;;;5.05;1.80;;;25.40;45.70;;;;;;5052951;28;20119;-66
2023/09/04 11:28:12;;;;;;;2.45;1.40;;;25.50;46.60;;;;;;5052770;28;20048;-66
2023/09/04 11:30:38;;;;;;;5.15;1.60;;;25.40;46.50;;;;;;5053130;28;20029;-65
2023/09/04 11:33:04;;;;;;;6.70;1.77;;;25.30;45.40;;;;;;5052784;28;20504;-66
2023/09/04 11:35:30;;;;;;;5.85;1.70;;;25.30;46.00;;;;;;5035281;28;20036;-65
2023/09/04 11:37:57;;;;;;;3.55;1.50;;;25.10;46.00;;;;;;5052958;28;20052;-66
2023/09/04 11:40:31;;;;;;;2.85;1.70;;;24.80;46.10;;;;;;5052916;28;20033;-66
2023/09/04 11:42:56;;;;;;;2.83;1.65;;;25.00;46.90;;;;;;5052470;28;20096;-66
2023/09/04 11:45:25;;;;;;;5.57;1.85;;;25.20;47.50;;;;;;5053043;28;20029;-65
2023/09/04 11:47:50;;;;;;;2.80;1.45;;;25.20;45.90;;;;;;5052438;28;20025;-68
2023/09/04 11:50:16;;;;;;;4.82;1.60;;;25.20;46.10;;;;;;5035040;28;20092;-66
2023/09/04 11:52:42;;;;;;;2.25;1.70;;;25.10;46.80;;;;;;5053130;28;20029;-66
2023/09/04 11:55:09;;;;;;;4.45;1.77;;;25.00;46.10;;;;;;5052220;28;20436;-67
2023/09/04 11:57:35;;;;;;;5.13;1.60;;;24.80;46.20;;;;;;5052691;28;20107;-66
2023/09/04 12:00:01;;;;;;;2.08;1.70;;;25.00;46.20;;;;;;5052593;28;20076;-66
2023/09/04 12:02:26;;;;;;;3.58;1.63;;;24.90;46.30;;;;;;5052672;28;20068;-66
2023/09/04 12:04:56;;;;;;;3.95;1.73;;;24.90;46.60;;;;;;5052043;28;20037;-67
2023/09/04 12:07:21;;;;;;;4.38;1.50;;;25.00;46.10;;;;;;5052024;28;20025;-66
2023/09/04 12:09:47;;;;;;;5.45;1.92;;;25.00;45.70;;;;;;5052626;28;20029;-67
2023/09/04 12:12:15;;;;;;;2.80;1.60;;;25.10;44.10;;;;;;5051804;28;20484;-67
2023/09/04 12:14:45;;;;;;;3.17;1.60;;;24.90;43.50;;;;;;5035077;28;20029;-66
2023/09/04 12:17:11;;;;;;;2.25;1.50;;;24.90;44.40;;;;;;5051929;28;20037;-66
2023/09/04 12:19:37;;;;;;;5.22;1.88;;;24.80;43.80;;;;;;5052380;28;20029;-66
2023/09/04 12:22:13;;;;;;;3.22;1.58;;;24.80;44.10;;;;;;5052046;28;20476;-65
2023/09/04 12:24:40;;;;;;;4.80;1.63;;;24.80;44.00;;;;;;5052370;28;20025;-67
2023/09/04 12:27:06;;;;;;;5.25;1.77;;;24.80;43.90;;;;;;5048922;28;20079;-66
2023/09/04 12:29:34;;;;;;;3.20;1.75;;;24.70;43.40;;;;;;5052441;28;20108;-66
2023/09/04 12:32:01;;;;;;;4.97;1.77;;;24.70;44.20;;;;;;5051920;28;20040;-66
2023/09/04 12:34:27;;;;;;;4.03;1.50;;;24.80;44.30;;;;;;5052407;28;20033;-66
2023/09/04 12:36:55;;;;;;;2.67;1.80;;;24.70;44.20;;;;;;5051392;28;20059;-66
2023/09/04 12:39:20;;;;;;;5.78;2.20;;;24.70;44.80;;;;;;5032304;28;20032;-66
2023/09/04 12:41:57;;;;;;;3.22;1.90;;;24.50;44.00;;;;;;5032173;28;20375;-66
2023/09/04 12:44:22;;;;;;;5.13;1.80;;;24.50;44.40;;;;;;5032476;28;20033;-65
2023/09/04 12:46:48;;;;;;;3.13;1.90;;;24.30;44.80;;;;;;5032099;28;20044;-66